Time;durP1;ratioP1;P1;durP2;ratioP2;P2;SDS_P1;SDS_P2;PMS_P1;PMS_P2;Temp;Humidity;BMP_temperature;BMP_pressure;BME280_temperature;BME280_humidity;BME280_pressure;Samples;Min_cycle;Max_cycle;Signal;HPM_P1;HPM_P2
2022/07/19 00:00:14;;;;;;;9.60;5.40;;;;;;;13.59;100.00;101437.32;1770843;79;21038;-89
2022/07/19 00:02:42;;;;;;;8.73;4.78;;;;;;;13.59;100.00;101441.25;1763074;81;21040;-90
2022/07/19 00:05:10;;;;;;;5.58;4.55;;;;;;;13.61;100.00;101438.05;1761363;79;21017;-90
2022/07/19 00:07:38;;;;;;;5.15;4.65;;;;;;;13.60;100.00;101433.76;1750012;81;21030;-89
2022/07/19 00:10:09;;;;;;;7.42;4.85;;;;;;;13.59;100.00;101442.09;1750307;82;21919;-89
2022/07/19 00:12:37;;;;;;;;;;;;;;;13.59;100.00;101443.86;1752425;81;20994;-89
2022/07/19 00:15:09;;;;;;;7.47;4.60;;;;;;;13.59;100.00;101434.70;1750073;81;20204;-89
2022/07/19 00:17:43;;;;;;;9.13;5.22;;;;;;;13.60;100.00;101436.38;1750155;82;21649;-89
2022/07/19 00:20:14;;;;;;;5.60;4.70;;;;;;;13.59;100.00;101436.02;1748101;82;21076;-89
2022/07/19 00:22:42;;;;;;;8.00;5.05;;;;;;;13.54;100.00;101435.90;1750520;81;21855;-89
2022/07/19 00:25:10;;;;;;;6.05;5.17;;;;;;;13.52;100.00;101438.27;1750088;81;21843;-89
2022/07/19 00:27:37;;;;;;;7.75;5.05;;;;;;;13.44;100.00;101434.91;1750196;81;21024;-89
2022/07/19 00:30:07;;;;;;;6.10;4.42;;;;;;;13.34;100.00;101441.27;1750551;81;21041;-88
2022/07/19 00:32:34;;;;;;;9.05;4.40;;;;;;;13.28;100.00;101443.49;1750060;82;21049;-89
2022/07/19 00:35:03;;;;;;;6.83;4.15;;;;;;;13.25;100.00;101445.87;1750322;80;21205;-88
2022/07/19 00:37:30;;;;;;;5.75;4.55;;;;;;;13.21;100.00;101438.72;1750366;81;21081;-88
2022/07/19 00:39:57;;;;;;;5.25;4.12;;;;;;;13.20;100.00;101438.36;1750560;81;21710;-89
2022/07/19 00:42:24;;;;;;;4.05;3.40;;;;;;;13.17;100.00;101439.91;1750261;80;21080;-89
2022/07/19 00:44:51;;;;;;;4.10;3.70;;;;;;;13.18;100.00;101440.73;1750552;81;21632;-88
2022/07/19 00:47:18;;;;;;;4.97;4.22;;;;;;;13.17;100.00;101438.59;1750358;81;21112;-89
2022/07/19 00:49:45;;;;;;;6.20;3.83;;;;;;;13.17;100.00;101439.05;1750666;81;21581;-89
2022/07/19 00:52:15;;;;;;;4.42;3.75;;;;;;;13.18;100.00;101445.47;1750008;81;21064;-90
2022/07/19 00:54:45;;;;;;;6.42;3.70;;;;;;;13.21;100.00;101445.26;1750684;81;21057;-89
2022/07/19 00:57:15;;;;;;;4.17;3.47;;;;;;;13.26;100.00;101447.05;1750120;80;21096;-88
2022/07/19 00:59:43;;;;;;;5.00;3.75;;;;;;;13.28;100.00;101452.19;1750631;81;21562;-88
2022/07/19 01:02:29;;;;;;;6.28;3.47;;;;;;;13.28;100.00;101447.41;1750574;80;21037;-89
2022/07/19 01:04:56;;;;;;;5.55;3.70;;;;;;;13.28;100.00;101446.11;1759895;81;21614;-89
2022/07/19 01:07:24;;;;;;;4.25;3.17;;;;;;;13.29;100.00;101446.02;1765002;81;21534;-90
2022/07/19 01:09:51;;;;;;;4.05;3.45;;;;;;;13.30;100.00;101450.77;1764471;81;21048;-89
2022/07/19 01:12:22;;;;;;;4.97;3.42;;;;;;;13.31;100.00;101456.36;1764726;81;21880;-90
2022/07/19 01:14:54;;;;;;;3.53;3.23;;;;;;;13.34;100.00;101449.61;1764775;81;21029;-90
2022/07/19 01:17:22;;;;;;;4.92;3.52;;;;;;;13.37;100.00;101456.75;1757466;81;21041;-89
2022/07/19 01:19:49;;;;;;;6.00;3.15;;;;;;;13.40;100.00;101463.56;1764656;81;21546;-89
2022/07/19 01:22:16;;;;;;;4.42;3.47;;;;;;;13.43;100.00;101459.39;1764321;81;21111;-89
2022/07/19 01:24:44;;;;;;;4.08;3.45;;;;;;;13.46;100.00;101463.11;1764324;81;21144;-90
2022/07/19 01:27:11;;;;;;;3.62;3.17;;;;;;;13.49;100.00;101466.81;1764420;81;21100;-89
2022/07/19 01:29:38;;;;;;;4.03;3.58;;;;;;;13.50;100.00;101461.91;1764826;81;21055;-89
2022/07/19 01:32:07;;;;;;;5.47;3.40;;;;;;;13.53;100.00;101466.11;1764487;81;21029;-89
2022/07/19 01:34:34;;;;;;;4.15;3.75;;;;;;;13.51;100.00;101470.62;1764722;81;21123;-89
2022/07/19 01:37:01;;;;;;;5.33;3.65;;;;;;;13.41;100.00;101461.31;1764963;81;21671;-89
2022/07/19 01:39:28;;;;;;;8.20;3.47;;;;;;;13.29;100.00;101466.94;1764509;81;21170;-89
2022/07/19 01:41:55;;;;;;;4.25;3.75;;;;;;;13.23;100.00;101468.67;1764968;81;21008;-89
2022/07/19 01:44:22;;;;;;;3.83;3.47;;;;;;;13.20;100.00;101464.99;1764451;81;21009;-89
2022/07/19 01:46:49;;;;;;;6.08;3.87;;;;;;;13.19;100.00;101462.83;1764868;81;21033;-89
2022/07/19 01:49:17;;;;;;;3.90;3.33;;;;;;;13.20;100.00;101468.91;1764695;81;21167;-90
2022/07/19 01:51:44;;;;;;;4.17;3.55;;;;;;;13.20;100.00;101464.50;1764556;81;21202;-89
2022/07/19 01:54:11;;;;;;;4.00;3.60;;;;;;;13.21;100.00;101467.97;1764969;81;21100;-89
2022/07/19 01:56:44;;;;;;;4.15;3.77;;;;;;;13.21;100.00;101471.89;1764507;81;21057;-90
2022/07/19 01:59:11;;;;;;;4.35;3.95;;;;;;;13.20;100.00;101470.22;1761529;81;21519;-89
2022/07/19 02:01:38;;;;;;;6.55;4.20;;;;;;;13.21;100.00;101467.97;1764634;81;21083;-89
2022/07/19 02:04:05;;;;;;;4.40;3.80;;;;;;;13.22;100.00;101465.72;1764782;81;21534;-89
2022/07/19 02:06:34;;;;;;;4.75;3.92;;;;;;;13.24;100.00;101471.66;1764858;81;21713;-89
2022/07/19 02:09:01;;;;;;;5.45;3.92;;;;;;;13.25;100.00;101472.88;1764762;81;21044;-89
2022/07/19 02:11:35;;;;;;;4.42;4.00;;;;;;;13.26;100.00;101469.28;1764944;81;21728;-89
2022/07/19 02:14:06;;;;;;;6.53;3.98;;;;;;;13.26;100.00;101471.90;1764292;81;22235;-89
2022/07/19 02:16:35;;;;;;;;;;;;;;;13.27;100.00;101474.06;1767470;81;21037;-89
2022/07/19 02:19:02;;;;;;;7.87;4.35;;;;;;;13.29;100.00;101476.55;1765039;81;20204;-89
2022/07/19 02:21:30;;;;;;;4.58;4.10;;;;;;;13.31;100.00;101480.72;1764824;81;21049;-89
2022/07/19 02:23:57;;;;;;;4.37;3.95;;;;;;;13.32;100.00;101475.85;1764624;81;21599;-88
2022/07/19 02:26:24;;;;;;;4.20;3.72;;;;;;;13.36;100.00;101479.08;1764447;81;21140;-89
2022/07/19 02:28:52;;;;;;;5.22;4.17;;;;;;;13.37;100.00;101478.98;1764355;81;21566;-89
2022/07/19 02:31:20;;;;;;;4.25;3.85;;;;;;;13.38;100.00;101478.05;1764375;81;21104;-89
2022/07/19 02:33:47;;;;;;;6.53;3.92;;;;;;;13.40;100.00;101484.00;1764214;81;21028;-88
2022/07/19 02:36:15;;;;;;;5.55;4.20;;;;;;;13.41;100.00;101483.55;1764419;81;21029;-89
2022/07/19 02:38:42;;;;;;;4.55;4.12;;;;;;;13.41;100.00;101486.16;1764970;81;21165;-89
2022/07/19 02:41:10;;;;;;;4.67;4.28;;;;;;;13.37;100.00;101482.91;1765060;80;21066;-88
2022/07/19 02:43:37;;;;;;;4.30;3.90;;;;;;;13.36;100.00;101489.09;1764833;81;21538;-88
2022/07/19 02:46:04;;;;;;;4.75;3.80;;;;;;;13.35;100.00;101493.09;1764345;81;21272;-89
2022/07/19 02:48:32;;;;;;;4.67;4.22;;;;;;;13.34;100.00;101492.77;1764727;81;21091;-89
2022/07/19 02:50:59;;;;;;;4.35;3.90;;;;;;;13.33;100.00;101493.70;1764555;80;21742;-88
2022/07/19 02:53:26;;;;;;;5.42;3.87;;;;;;;13.33;100.00;101493.70;1764888;80;21047;-89
2022/07/19 02:55:53;;;;;;;4.72;4.22;;;;;;;13.35;100.00;101504.41;1764709;81;21533;-89
2022/07/19 02:58:21;;;;;;;4.00;3.60;;;;;;;13.37;100.00;101498.60;1765211;81;20983;-89
2022/07/19 03:00:48;;;;;;;5.00;3.80;;;;;;;13.43;100.00;101505.17;1764804;80;21552;-89
2022/07/19 03:06:01;;;;;;;3.70;3.37;;;;;;;13.53;100.00;101514.03;1752773;80;20994;-89
2022/07/19 03:08:29;;;;;;;4.10;3.77;;;;;;;13.62;100.00;101516.92;1759105;81;21120;-90
2022/07/19 03:10:58;;;;;;;4.92;4.42;;;;;;;13.69;100.00;101517.67;1807682;78;21020;-89
2022/07/19 03:13:25;;;;;;;4.47;3.92;;;;;;;13.78;100.00;101525.80;1807522;78;21103;-89
2022/07/19 03:15:52;;;;;;;5.67;4.22;;;;;;;13.84;100.00;101526.15;1808006;78;21141;-89
2022/07/19 03:18:19;;;;;;;4.62;3.80;;;;;;;13.92;100.00;101527.36;1807482;78;21028;-89
2022/07/19 03:20:47;;;;;;;4.37;3.90;;;;;;;13.98;100.00;101534.77;1807912;78;21558;-91
2022/07/19 03:23:15;;;;;;;4.22;3.85;;;;;;;14.07;100.00;101530.62;1807891;78;21098;-89
2022/07/19 03:25:42;;;;;;;5.05;4.55;;;;;;;14.15;100.00;101534.80;1807589;79;21071;-89
2022/07/19 03:28:09;;;;;;;5.05;4.37;;;;;;;14.22;100.00;101533.88;1807724;78;21153;-90
2022/07/19 03:30:37;;;;;;;5.80;4.80;;;;;;;14.30;100.00;101537.56;1807137;78;21055;-89
2022/07/19 03:33:04;;;;;;;8.03;4.80;;;;;;;14.37;100.00;101540.55;1807482;78;21122;-90
2022/07/19 03:35:31;;;;;;;7.30;4.67;;;;;;;14.45;100.00;101544.73;1807646;78;21027;-90
2022/07/19 03:37:58;;;;;;;4.78;4.25;;;;;;;14.53;100.00;101550.67;1807654;78;21626;-90
2022/07/19 03:40:25;;;;;;;4.80;4.22;;;;;;;14.61;100.00;101549.61;1808099;78;21663;-89
2022/07/19 03:42:53;;;;;;;4.35;3.50;;;;;;;14.70;100.00;101552.50;1775369;79;37725;-90
2022/07/19 03:45:20;;;;;;;3.95;3.50;;;;;;;14.77;100.00;101551.91;1807852;78;21012;-89
2022/07/19 03:47:48;;;;;;;3.50;3.20;;;;;;;14.86;100.00;101548.22;1807990;78;21051;-89
2022/07/19 03:50:15;;;;;;;7.10;3.30;;;;;;;14.94;100.00;101547.13;1807137;78;21069;-89
2022/07/19 03:52:42;;;;;;;3.58;3.00;;;;;;;15.05;100.00;101550.22;1807858;78;21155;-89
2022/07/19 03:55:09;;;;;;;5.33;3.10;;;;;;;15.13;100.00;101553.06;1807518;78;21007;-89
2022/07/19 03:57:36;;;;;;;4.25;3.30;;;;;;;15.22;100.00;101550.98;1808080;78;21063;-90
2022/07/19 04:00:06;;;;;;;2.75;2.52;;;;;;;15.32;100.00;101548.94;1807860;78;21079;-89
2022/07/19 04:02:35;;;;;;;2.83;2.58;;;;;;;15.42;100.00;101553.32;1803020;78;21046;-90
2022/07/19 04:05:02;;;;;;;4.45;3.00;;;;;;;15.51;100.00;101550.45;1807968;78;21103;-89
2022/07/19 04:07:31;;;;;;;4.45;2.47;;;;;;;15.59;100.00;101553.74;1808832;78;21518;-88
2022/07/19 04:09:58;;;;;;;4.65;2.58;;;;;;;15.66;100.00;101558.02;1808266;78;21012;-89
2022/07/19 04:12:27;;;;;;;2.60;2.40;;;;;;;15.73;100.00;101558.72;1808469;78;21023;-89
2022/07/19 04:14:54;;;;;;;2.70;2.30;;;;;;;15.78;100.00;101552.59;1808303;78;21529;-89
2022/07/19 04:17:23;;;;;;;2.70;2.50;;;;;;;15.83;100.00;101553.56;1808644;78;21176;-89
2022/07/19 04:19:50;;;;;;;4.65;2.67;;;;;;;15.89;100.00;101556.98;1808593;78;20984;-90
2022/07/19 04:22:18;;;;;;;3.08;2.60;;;;;;;15.97;100.00;101548.48;1808526;78;21035;-89
2022/07/19 04:24:45;;;;;;;3.75;2.37;;;;;;;16.09;100.00;101555.33;1808837;78;21534;-89
2022/07/19 04:27:13;;;;;;;2.35;2.17;;;;;;;16.19;100.00;101554.55;1808736;78;21015;-89
2022/07/19 04:29:41;;;;;;;3.30;2.60;;;;;;;16.28;100.00;101556.41;1808504;78;21266;-90
2022/07/19 04:32:08;;;;;;;2.80;2.50;;;;;;;16.39;100.00;101556.31;1808697;78;21018;-90
2022/07/19 04:34:35;;;;;;;3.60;2.87;;;;;;;16.51;100.00;101554.44;1808352;78;21030;-89
2022/07/19 04:37:03;;;;;;;3.27;2.15;;;;;;;16.61;100.00;101562.39;1808705;78;21071;-89
2022/07/19 04:39:30;;;;;;;3.45;2.33;;;;;;;16.75;100.00;101556.41;1808469;78;21039;-89
2022/07/19 04:41:57;;;;;;;2.40;2.20;;;;;;;16.87;100.00;101558.80;1808677;78;22127;-90
2022/07/19 04:44:24;;;;;;;2.85;2.22;;;;;;;17.00;100.00;101553.34;1808942;78;21015;-89
2022/07/19 04:46:51;;;;;;;5.62;2.10;;;;;;;17.11;100.00;101555.02;1808647;78;21513;-89
2022/07/19 04:49:18;;;;;;;2.40;2.20;;;;;;;17.24;100.00;101545.56;1809086;78;21069;-89
2022/07/19 04:51:46;;;;;;;2.58;2.37;;;;;;;17.35;100.00;101549.36;1808852;78;21426;-89
2022/07/19 04:54:13;;;;;;;2.83;2.02;;;;;;;17.43;100.00;101549.16;1809233;78;21668;-89
2022/07/19 04:56:42;;;;;;;2.37;2.17;;;;;;;17.47;100.00;101546.61;1808899;78;21499;-89
2022/07/19 04:59:09;;;;;;;3.72;2.15;;;;;;;17.56;100.00;101549.73;1808772;79;21553;-89
2022/07/19 05:01:36;;;;;;;1.87;1.77;;;;;;;17.66;100.00;101551.05;1799768;78;21042;-90
2022/07/19 05:04:03;;;;;;;2.52;2.33;;;;;;;17.77;100.00;101544.33;1770472;79;21580;-90
2022/07/19 05:06:31;;;;;;;2.10;1.90;;;;;;;17.89;100.00;101538.42;1758966;80;21531;-88
2022/07/19 05:08:58;;;;;;;2.20;1.95;;;;;;;18.02;100.00;101543.89;1774898;80;20999;-89
2022/07/19 05:11:26;;;;;;;3.02;2.08;;;;;;;18.14;100.00;101544.09;1773992;80;21057;-88
2022/07/19 05:13:53;;;;;;;3.70;1.90;;;;;;;18.29;100.00;101543.13;1726273;81;21011;-88
2022/07/19 05:16:21;;;;;;;3.65;2.05;;;;;;;18.41;100.00;101547.73;1726537;82;21033;-87
2022/07/19 05:18:48;;;;;;;2.47;1.90;;;;;;;18.53;100.00;101546.59;1744081;81;22212;-90
2022/07/19 05:21:15;;;;;;;2.17;2.00;;;;;;;18.62;100.00;101543.56;1756810;81;21077;-92
2022/07/19 05:23:42;;;;;;;2.20;2.00;;;;;;;18.72;100.00;101545.67;1742644;81;21085;-91
2022/07/19 05:26:10;;;;;;;2.27;2.08;;;;;;;18.81;100.00;101540.00;1726503;83;21034;-91
2022/07/19 05:28:37;;;;;;;2.10;2.00;;;;;;;18.90;100.00;101540.94;1738383;81;21066;-90
2022/07/19 05:31:05;;;;;;;3.22;2.20;;;;;;;19.01;100.00;101538.61;1756432;81;21049;-90
2022/07/19 05:33:32;;;;;;;2.83;2.10;;;;;;;19.10;100.00;101533.77;1754940;80;20994;-91
2022/07/19 05:35:59;;;;;;;3.27;2.10;;;;;;;19.21;100.00;101532.71;1758596;79;21088;-92
2022/07/19 05:38:29;;;;;;;1.92;1.80;;;;;;;19.33;100.00;101530.68;1758001;79;21037;-90
2022/07/19 05:40:56;;;;;;;2.60;1.85;;;;;;;19.45;100.00;101531.28;1766114;79;21706;-90
2022/07/19 05:43:24;;;;;;;2.33;1.90;;;;;;;19.51;100.00;101527.52;1759621;80;21152;-90
2022/07/19 05:45:51;;;;;;;2.77;1.85;;;;;;;19.64;100.00;101526.31;1770052;80;21443;-90
2022/07/19 05:48:18;;;;;;;1.90;1.70;;;;;;;19.73;100.00;101522.76;1766290;79;21126;-91
2022/07/19 05:50:45;;;;;;;2.87;1.87;;;;;;;19.79;100.00;101522.14;1762261;79;21595;-91
2022/07/19 05:53:13;;;;;;;1.87;1.77;;;;;;;19.83;100.00;101517.38;1749966;80;21091;-91
2022/07/19 05:55:41;;;;;;;3.27;1.70;;;;;;;19.93;100.00;101520.78;1755508;79;21136;-91
2022/07/19 05:58:08;;;;;;;2.10;1.85;;;;;;;20.08;100.00;101521.02;1754888;81;21039;-91
2022/07/19 06:00:36;;;;;;;2.08;1.67;;;;;;;20.22;100.00;101518.80;1761026;81;21567;-90
2022/07/19 06:03:04;;;;;;;3.42;1.72;;;;;;;20.35;100.00;101515.23;1759759;80;21049;-91
2022/07/19 06:05:31;;;;;;;2.00;1.55;;;;;;;20.46;100.00;101518.08;1762238;80;21010;-91
2022/07/19 06:07:58;;;;;;;4.50;1.98;;;;;;;20.52;100.00;101517.44;1786492;79;22597;-91
2022/07/19 06:10:25;;;;;;;3.72;1.55;;;;;;;20.61;100.00;101520.45;1763751;80;21086;-91
2022/07/19 06:12:53;;;;;;;2.30;1.75;;;;;;;20.73;100.00;101513.59;1783161;78;21541;-91
2022/07/19 06:15:20;;;;;;;1.80;1.70;;;;;;;20.82;100.00;101517.92;1772377;79;21025;-91
2022/07/19 06:17:47;;;;;;;1.77;1.32;;;;;;;20.92;100.00;101511.16;1776187;79;21017;-92
2022/07/19 06:20:14;;;;;;;1.50;1.40;;;;;;;21.01;100.00;101511.99;1776259;79;21820;-90
2022/07/19 06:22:42;;;;;;;2.35;1.10;;;;;;;21.11;100.00;101510.84;1775943;79;21046;-91
2022/07/19 06:25:09;;;;;;;2.25;1.30;;;;;;;21.27;100.00;101510.56;1776096;79;21073;-92
2022/07/19 06:27:37;;;;;;;2.35;1.45;;;;;;;21.42;100.00;101514.21;1775883;79;21005;-91
2022/07/19 06:30:05;;;;;;;1.60;1.50;;;;;;;21.55;100.00;101512.88;1775766;79;21024;-91
2022/07/19 06:32:32;;;;;;;1.40;1.30;;;;;;;21.63;100.00;101506.78;1776359;79;21202;-92
2022/07/19 06:35:00;;;;;;;3.30;1.45;;;;;;;21.70;100.00;101509.91;1770264;79;21015;-92
2022/07/19 06:37:27;;;;;;;1.52;1.30;;;;;;;21.79;100.00;101513.88;1772814;79;21506;-92
2022/07/19 06:39:54;;;;;;;2.25;1.35;;;;;;;21.87;100.00;101505.39;1775879;79;21012;-91
2022/07/19 06:42:20;;;;;;;1.35;1.25;;;;;;;;;;1772119;79;21021;-92
2022/07/19 06:44:47;;;;;;;1.40;1.30;;;;;;;22.01;100.00;101507.86;1746219;81;21148;-91
2022/07/19 06:47:15;;;;;;;1.52;1.40;;;;;;;22.06;100.00;101500.24;1782854;78;21115;-92
2022/07/19 06:49:42;;;;;;;2.05;1.55;;;;;;;22.12;100.00;101514.63;1790536;79;21043;-92
2022/07/19 06:52:09;;;;;;;1.40;1.30;;;;;;;22.15;100.00;101502.36;1764087;79;21034;-91
2022/07/19 06:54:36;;;;;;;1.77;1.47;;;;;;;22.20;100.00;101502.67;1773824;79;21024;-92
2022/07/19 06:57:03;;;;;;;2.92;1.45;;;;;;;22.31;100.00;101501.46;1772225;79;21230;-90
2022/07/19 06:59:31;;;;;;;1.67;1.35;;;;;;;22.40;100.00;101497.48;1798391;78;21047;-91
2022/07/19 07:01:58;;;;;;;2.85;1.30;;;;;;;22.45;100.00;101501.80;1763093;80;21048;-91
2022/07/19 07:04:25;;;;;;;1.50;1.40;;;;;;;22.51;100.00;101496.59;1769847;79;21680;-92
2022/07/19 07:06:52;;;;;;;1.57;1.20;;;;;;;22.63;100.00;101500.20;1761194;80;21092;-92
2022/07/19 07:09:21;;;;;;;1.40;1.20;;;;;;;22.69;100.00;101494.20;1754389;80;21543;-90
2022/07/19 07:11:48;;;;;;;1.37;1.12;;;;;;;22.74;100.00;101494.52;1754305;80;21060;-92
2022/07/19 07:23:02;;;;;;;0.90;0.90;;;;;;;23.08;82.24;101497.78;1734592;81;21044;-91
2022/07/19 07:25:29;;;;;;;0.90;0.90;;;;;;;23.15;76.79;101494.74;1738858;80;22122;-91
2022/07/19 07:27:57;;;;;;;1.40;1.30;;;;;;;23.20;72.25;101502.21;1737731;81;21621;-91
2022/07/19 07:30:24;;;;;;;3.20;1.35;;;;;;;23.20;75.84;101490.26;1737657;81;21103;-91
2022/07/19 07:32:52;;;;;;;2.10;1.50;;;;;;;23.27;86.14;101497.34;1738005;81;21067;-91
2022/07/19 07:35:19;;;;;;;3.58;1.50;;;;;;;23.39;80.47;101490.27;1735071;80;21049;-91
2022/07/19 07:37:47;;;;;;;1.30;1.20;;;;;;;23.47;83.31;101494.18;1756010;80;21776;-94
2022/07/19 07:40:14;;;;;;;3.42;1.30;;;;;;;23.53;79.71;101496.11;1755903;80;21040;-93
2022/07/19 07:42:41;;;;;;;1.70;1.37;;;;;;;23.60;76.58;101486.92;1755756;79;21054;-91
2022/07/19 07:45:09;;;;;;;2.80;1.50;;;;;;;23.68;77.54;101486.00;1756258;81;21533;-91
2022/07/19 07:47:38;;;;;;;3.27;1.32;;;;;;;23.72;70.25;101489.97;1756939;79;21142;-92
2022/07/19 07:50:07;;;;;;;3.30;1.32;;;;;;;23.73;72.94;101491.11;1776368;79;21765;-92
2022/07/19 07:52:35;;;;;;;1.65;1.10;;;;;;;23.79;74.28;101484.24;1755259;80;20990;-93
2022/07/19 07:55:03;;;;;;;1.15;0.98;;;;;;;23.90;66.47;101482.47;1756034;81;21107;-93
2022/07/19 07:57:30;;;;;;;2.08;1.30;;;;;;;23.99;65.43;101485.08;1755696;80;21018;-92
2022/07/19 07:59:58;;;;;;;1.20;1.10;;;;;;;24.02;61.46;101480.70;1755921;81;21530;-91
2022/07/19 08:02:25;;;;;;;1.40;1.07;;;;;;;24.05;61.81;101487.81;1755942;81;21123;-91
2022/07/19 08:04:52;;;;;;;1.67;1.07;;;;;;;24.07;60.31;101479.15;1760552;79;21038;-92
2022/07/19 08:07:19;;;;;;;1.85;1.30;;;;;;;24.08;62.05;101479.95;1795876;79;21009;-92
2022/07/19 08:09:46;;;;;;;2.92;1.47;;;;;;;24.14;63.52;101484.56;1767638;79;21066;-92
2022/07/19 08:12:13;;;;;;;1.37;1.27;;;;;;;24.28;62.90;101486.06;1766594;81;21530;-93
2022/07/19 08:14:42;;;;;;;1.02;1.02;;;;;;;24.38;60.74;101483.94;1764290;81;21161;-92
2022/07/19 08:17:10;;;;;;;1.27;0.90;;;;;;;24.43;54.17;101484.20;1768982;80;21025;-93
2022/07/19 08:19:37;;;;;;;1.60;1.22;;;;;;;24.40;54.42;101481.41;1767231;81;21027;-94
2022/07/19 08:22:05;;;;;;;1.00;1.00;;;;;;;24.47;54.74;101476.17;1758244;81;21053;-92
2022/07/19 08:24:32;;;;;;;1.17;1.07;;;;;;;24.56;56.86;101475.55;1755567;79;21048;-90
2022/07/19 08:26:59;;;;;;;0.95;0.95;;;;;;;24.69;52.41;101478.90;1733353;80;21954;-92
2022/07/19 08:29:26;;;;;;;1.10;1.05;;;;;;;24.73;52.58;101474.83;1763500;79;21043;-92
2022/07/19 08:31:54;;;;;;;1.20;1.10;;;;;;;24.73;50.14;101481.00;1762996;79;20997;-92
2022/07/19 08:34:21;;;;;;;2.58;1.00;;;;;;;24.74;50.37;101475.16;1765505;78;21077;-92
2022/07/19 08:36:50;;;;;;;2.00;1.20;;;;;;;24.77;52.08;101474.78;1766002;79;21099;-91
2022/07/19 08:39:19;;;;;;;1.17;1.00;;;;;;;24.78;48.61;101472.44;1756340;80;21567;-92
2022/07/19 08:41:46;;;;;;;1.50;1.00;;;;;;;24.78;50.54;101472.44;1764651;80;21037;-91
2022/07/19 08:44:14;;;;;;;3.65;1.10;;;;;;;24.83;50.70;101473.20;1765922;80;21543;-91
2022/07/19 08:46:42;;;;;;;1.40;1.00;;;;;;;24.89;48.68;101466.59;1754905;80;21055;-92
2022/07/19 08:49:10;;;;;;;2.17;1.00;;;;;;;25.00;50.28;101461.27;1756234;80;21599;-91
2022/07/19 08:51:38;;;;;;;1.10;1.00;;;;;;;25.11;51.52;101465.28;1760773;79;21207;-91
2022/07/19 08:54:05;;;;;;;1.22;0.90;;;;;;;25.19;48.62;101465.15;1740068;79;21319;-91
2022/07/19 08:59:23;;;;;;;1.30;1.20;;;;;;;25.29;50.40;101455.97;1735625;80;21089;-92
2022/07/19 09:01:50;;;;;;;1.45;1.20;;;;;;;25.36;50.07;101458.18;1742929;80;21049;-93
2022/07/19 09:04:21;;;;;;;2.90;1.30;;;;;;;25.41;48.95;101455.80;1724135;82;21164;-92
2022/07/19 09:06:52;;;;;;;3.08;1.10;;;;;;;25.47;49.76;101456.36;1774026;79;21006;-93
2022/07/19 09:09:29;;;;;;;1.87;1.20;;;;;;;25.51;46.66;101467.45;1761537;80;21040;-93
2022/07/19 09:11:59;;;;;;;1.35;0.90;;;;;;;25.49;47.48;101460.99;1770875;79;21130;-92
2022/07/19 09:14:35;;;;;;;2.72;1.00;;;;;;;25.54;47.03;101450.24;1775657;79;21086;-92
2022/07/19 09:17:16;;;;;;;2.10;0.95;;;;;;;25.60;46.56;101460.96;1759052;79;21948;-92
2022/07/19 09:19:45;;;;;;;2.15;1.02;;;;;;;25.67;45.10;101455.68;1800579;78;21023;-93
2022/07/19 09:22:16;;;;;;;1.47;1.20;;;;;;;25.61;44.83;101461.77;1767434;79;21324;-92
2022/07/19 09:24:49;;;;;;;1.20;1.10;;;;;;;25.57;46.39;101455.20;1779857;78;21035;-92
2022/07/19 09:27:25;;;;;;;0.80;0.80;;;;;;;25.59;45.51;101453.16;1778748;78;21051;-92
2022/07/19 09:29:57;;;;;;;0.60;0.60;;;;;;;25.63;45.20;101442.41;1772822;79;21809;-92
2022/07/19 09:32:26;;;;;;;1.85;0.80;;;;;;;25.67;42.92;101441.83;1792060;78;21005;-90
2022/07/19 09:35:01;;;;;;;0.80;0.80;;;;;;;25.74;44.45;101449.03;1795005;78;21039;-93
2022/07/19 09:37:34;;;;;;;0.78;0.72;;;;;;;25.83;43.31;101445.20;1783230;80;21614;-94
2022/07/19 09:40:06;;;;;;;0.80;0.80;;;;;;;25.89;44.93;101440.92;1774411;80;21030;-92
2022/07/19 09:42:40;;;;;;;2.65;1.10;;;;;;;25.98;44.46;101445.08;1767112;81;21151;-92
2022/07/19 09:45:11;;;;;;;0.90;0.88;;;;;;;26.06;44.71;101430.73;1775912;80;21098;-94
2022/07/19 09:47:43;;;;;;;1.20;0.75;;;;;;;26.17;45.78;101430.69;1771164;80;21052;-91
2022/07/19 09:50:16;;;;;;;0.62;0.62;;;;;;;26.04;39.83;101435.46;1777172;79;21960;-91
2022/07/19 09:52:49;;;;;;;0.90;0.90;;;;;;;25.64;38.63;101428.06;1736029;80;21067;-93
2022/07/19 09:55:18;;;;;;;0.80;0.80;;;;;;;25.45;40.60;101437.06;1785733;78;21094;-91
2022/07/19 09:57:50;;;;;;;1.70;1.10;;;;;;;25.50;40.85;101432.48;1783814;79;21528;-93
2022/07/19 10:00:21;;;;;;;2.27;0.80;;;;;;;25.63;41.21;101421.08;1784096;79;21046;-92
2022/07/19 10:02:53;;;;;;;0.80;0.80;;;;;;;25.79;39.16;101420.76;1751866;80;21052;-92
2022/07/19 10:05:22;;;;;;;1.50;0.80;;;;;;;25.95;41.57;101421.45;1741323;81;21073;-87
2022/07/19 10:07:50;;;;;;;3.70;1.05;;;;;;;26.11;41.08;101417.66;1783888;78;21073;-89
2022/07/19 10:10:21;;;;;;;0.75;0.75;;;;;;;26.20;40.24;101416.96;1755219;80;21098;-89
2022/07/19 10:12:53;;;;;;;2.70;1.20;;;;;;;26.26;38.78;101416.16;1771660;80;21006;-91
2022/07/19 10:15:20;;;;;;;1.13;1.13;;;;;;;26.31;40.04;101417.73;1749353;80;21532;-90
2022/07/19 10:18:14;;;;;;;1.02;1.02;;;;;;;26.39;38.93;101417.55;1777799;80;21658;-91
2022/07/19 10:20:47;;;;;;;1.15;0.80;;;;;;;26.48;40.35;101415.50;1775230;80;21261;-93
2022/07/19 10:23:14;;;;;;;2.40;1.00;;;;;;;26.57;40.36;101416.13;1762663;80;21097;-92
2022/07/19 10:25:46;;;;;;;2.45;0.80;;;;;;;26.54;40.13;101409.87;1757720;80;21040;-91
2022/07/19 10:28:37;;;;;;;1.50;0.95;;;;;;;26.48;39.54;101405.34;1765134;79;21095;-91
2022/07/19 10:31:30;;;;;;;1.90;1.00;;;;;;;26.59;40.58;101406.06;1757902;79;20987;-92
2022/07/19 10:34:07;;;;;;;0.65;0.65;;;;;;;26.76;40.76;101398.54;1763226;80;21809;-92
2022/07/19 10:36:48;;;;;;;0.90;0.70;;;;;;;26.90;40.22;101398.84;1759138;79;21855;-92
2022/07/19 10:39:33;;;;;;;1.00;0.72;;;;;;;27.07;38.86;101390.42;1757567;80;21074;-94
2022/07/19 10:42:21;;;;;;;1.37;0.78;;;;;;;27.21;40.70;101388.53;1751030;80;21025;-92
2022/07/19 10:45:06;;;;;;;0.70;0.70;;;;;;;27.33;40.23;101388.22;1754162;81;21029;-92
2022/07/19 10:47:43;;;;;;;0.80;0.80;;;;;;;27.40;40.51;101383.67;1751591;80;21848;-91
2022/07/19 10:50:21;;;;;;;2.15;0.80;;;;;;;27.49;40.24;101383.48;1758494;80;21080;-93
2022/07/19 10:52:49;;;;;;;1.12;0.82;;;;;;;27.58;39.27;101382.23;1755923;80;21156;-91
2022/07/19 10:55:24;;;;;;;0.80;0.80;;;;;;;27.57;40.40;101387.27;1730640;80;21033;-90
2022/07/19 10:58:08;;;;;;;1.05;0.78;;;;;;;27.46;39.50;101381.22;1761606;79;21058;-92
2022/07/19 11:00:48;;;;;;;1.12;1.00;;;;;;;27.20;39.52;101377.56;1762880;80;21155;-91
2022/07/19 11:03:28;;;;;;;0.90;0.90;;;;;;;26.98;40.66;101381.77;1763116;80;21557;-92
2022/07/19 11:05:59;;;;;;;1.40;0.82;;;;;;;26.93;40.00;101379.72;1762933;79;21154;-93
2022/07/19 11:08:45;;;;;;;1.02;0.80;;;;;;;26.86;40.11;101383.43;1752676;79;26581;-90
2022/07/19 11:11:17;;;;;;;3.00;1.00;;;;;;;26.58;41.53;101379.05;1731118;81;21564;-92
2022/07/19 11:13:49;;;;;;;2.35;0.75;;;;;;;26.18;39.44;101377.14;1746647;79;21143;-91
2022/07/19 11:16:16;;;;;;;1.80;1.05;;;;;;;25.93;40.12;101375.47;1725302;81;21029;-90
2022/07/19 11:18:46;;;;;;;1.12;1.10;;;;;;;25.80;41.06;101374.89;1717807;81;21529;-90
2022/07/19 11:21:16;;;;;;;1.85;1.00;;;;;;;25.86;41.28;101369.28;1718601;82;21356;-91
2022/07/19 11:23:44;;;;;;;1.72;1.27;;;;;;;26.11;40.88;101370.44;1721740;81;21077;-91
2022/07/19 11:26:20;;;;;;;1.40;1.30;;;;;;;26.46;41.71;101366.81;1744802;81;21207;-92
2022/07/19 11:28:49;;;;;;;1.60;0.90;;;;;;;26.79;41.30;101371.40;1731539;79;21104;-89
2022/07/19 11:31:25;;;;;;;1.20;1.10;;;;;;;27.01;40.10;101367.17;1702108;81;21053;-90
2022/07/19 11:33:58;;;;;;;0.95;0.95;;;;;;;27.14;40.57;101366.34;1725809;81;21496;-92
2022/07/19 11:36:27;;;;;;;2.37;1.10;;;;;;;27.16;38.45;101368.30;1725711;81;21583;-90
2022/07/19 11:39:03;;;;;;;1.07;0.98;;;;;;;26.95;38.72;101374.69;1726462;81;21227;-90
2022/07/19 11:41:32;;;;;;;1.12;0.80;;;;;;;26.53;39.02;101374.32;1752389;79;21037;-90
2022/07/19 11:44:08;;;;;;;3.55;1.12;;;;;;;26.06;40.32;101374.69;1740551;81;21070;-90